Troy Municipal Airport
KTOI : now visible

Airfield :











YOU CAN JOIN US ON...

 
LOGIN :

Register | Disclaimer

   EN    FR    IT 

 









Legend :    VFR   Marginal VFR   IFR   Intensive IFR   Very Intensive IFR
Visi :
Ceiling :
>= 8 km
>= 3000ft
5 to 8 km
1000 to 3000 ft
1500m to 5 km
500 to 1000 ft
800 to 1500m
200 to 500 ft
< 800m
< 200 ft
Symbols :   Thunderstorms  Fog  Heavy snow  Heavy precipitations  Wind > 20 kt






- Airport Elevation : 398 ft


KTOI - Troy Municipal

CURRENT METAR :
  • 240553Z AUTO 00000KT 10SM OVC080 11/02 A3012 RMK AO2 SLP196 T01110022 10133 20106 401611006 58022

EXPIRED METARs :
  • 240453Z AUTO 00000KT 10SM OVC075 12/03 A3015 RMK AO2 SLP206 T01170028
  • 240353Z AUTO 08004KT 10SM OVC080 11/03 A3016 RMK AO2 SLP211 T01110028

TAF KTOI
Valid from the 24 at 06:00 until the 25 at 06:00 UTC


240539Z 2406/2506 00000KT P6SM OVC080
FM241200 VRB04KT P6SM OVC027
FM241500 15006KT P6SM OVC035
PROB30 2415/2418 4SM -SHRA OVC025
FM241800 17007KT 6SM SHRA OVC018
FM242300 18009KT 4SM SHRA OVC009



MET'MAP, your aeronautical weather chart ! - Copyright ORBIFLY December 2007 - Disclaimer

ORBIFLY MET'MAP TEAM :

Programming & Development : Alexandra Zaïnal
Concept & original design : Baudouin d'Aumeries
Assistance for programming : Marc-Olivier Méhu
Technical & hardware support : Manuel Goepfert

Contact : metmap@orbifly.com




SOURCES & CREDITS :

   NOAA       Earth
Advisory